createdAt,value
2023-01-25T00:00:33.672Z,6.30
2023-01-25T00:03:31.500Z,6.70
2023-01-25T00:06:29.219Z,6.43
2023-01-25T00:09:27.168Z,5.67
2023-01-25T00:12:24.868Z,6.23
2023-01-25T00:15:22.800Z,7.40
2023-01-25T00:18:20.608Z,7.70
2023-01-25T00:21:20.666Z,6.53
2023-01-25T00:24:18.777Z,7.20
2023-01-25T00:27:16.673Z,7.13
2023-01-25T00:30:14.580Z,7.67
2023-01-25T00:33:44.995Z,6.97
2023-01-25T00:36:45.136Z,7.33
2023-01-25T00:39:43.043Z,7.73
2023-01-25T00:42:41.348Z,8.10
2023-01-25T00:45:39.203Z,7.87
2023-01-25T00:48:37.029Z,7.70
2023-01-25T00:51:34.877Z,7.27
2023-01-25T00:54:32.608Z,7.13
2023-01-25T00:57:30.430Z,7.57
2023-01-25T01:00:28.258Z,6.77
2023-01-25T01:03:26.245Z,7.33
2023-01-25T01:06:23.954Z,7.13
2023-01-25T01:09:23.169Z,8.60
2023-01-25T01:12:21.108Z,7.67
2023-01-25T01:15:18.896Z,8.27
2023-01-25T01:18:16.571Z,9.43
2023-01-25T01:21:14.804Z,8.17
2023-01-25T01:24:12.575Z,7.20
2023-01-25T01:27:10.548Z,7.27
2023-01-25T01:30:08.884Z,7.43
2023-01-25T01:33:07.171Z,6.50
2023-01-25T01:36:11.727Z,7.23
2023-01-25T01:39:10.008Z,6.83
2023-01-25T01:42:07.673Z,7.17
2023-01-25T01:45:40.720Z,7.77
2023-01-25T01:48:49.613Z,7.40
2023-01-25T01:51:56.815Z,7.87
2023-01-25T01:55:03.656Z,7.17
2023-01-25T01:58:04.098Z,6.80
2023-01-25T02:01:02.104Z,7.23
2023-01-25T02:04:00.903Z,9.27
2023-01-25T02:07:06.402Z,8.53
2023-01-25T02:10:08.179Z,7.77
2023-01-25T02:13:05.877Z,8.33
2023-01-25T02:16:05.332Z,7.57
2023-01-25T02:19:04.229Z,7.00
2023-01-25T02:22:08.348Z,6.87
2023-01-25T02:25:09.667Z,6.63
2023-01-25T02:28:17.463Z,7.47
2023-01-25T02:31:15.412Z,7.07
2023-01-25T02:34:13.340Z,7.63
2023-01-25T02:37:15.553Z,7.70
2023-01-25T02:40:13.587Z,7.33
2023-01-25T02:43:11.445Z,6.73
2023-01-25T02:46:18.596Z,7.13
2023-01-25T02:49:17.742Z,7.30
2023-01-25T02:52:15.477Z,7.03
2023-01-25T02:55:13.532Z,7.93
2023-01-25T02:58:11.360Z,6.80
2023-01-25T03:01:09.837Z,7.13
2023-01-25T03:04:08.384Z,7.50
2023-01-25T03:07:06.157Z,9.50
2023-01-25T03:10:04.002Z,8.47
2023-01-25T03:13:01.848Z,7.70
2023-01-25T03:16:03.818Z,7.90
2023-01-25T03:19:01.530Z,7.13
2023-01-25T03:21:59.624Z,7.83
2023-01-25T03:24:57.772Z,7.30
2023-01-25T03:27:56.878Z,6.97
2023-01-25T03:30:56.266Z,7.47
2023-01-25T03:33:54.063Z,6.90
2023-01-25T03:36:54.046Z,7.60
2023-01-25T03:39:51.954Z,6.77
2023-01-25T03:42:49.629Z,8.83
2023-01-25T03:45:52.082Z,7.77
2023-01-25T03:48:49.743Z,7.23
2023-01-25T03:51:47.469Z,7.53
2023-01-25T03:54:45.163Z,7.50
2023-01-25T03:57:43.140Z,8.07
2023-01-25T04:00:40.819Z,7.70
2023-01-25T04:03:39.147Z,11.47
2023-01-25T04:06:36.961Z,8.93
2023-01-25T04:09:35.031Z,8.53
2023-01-25T04:12:32.932Z,10.27
2023-01-25T04:15:31.109Z,9.75
2023-01-25T04:18:28.931Z,9.43
2023-01-25T04:21:27.425Z,11.20
2023-01-25T04:24:25.269Z,11.43
2023-01-25T04:27:23.097Z,10.48
2023-01-25T04:30:21.036Z,12.00
2023-01-25T04:33:18.864Z,12.38
2023-01-25T04:36:16.722Z,12.68
2023-01-25T04:39:14.718Z,12.93
2023-01-25T04:42:12.523Z,13.07
2023-01-25T04:45:11.243Z,12.07
2023-01-25T04:48:11.900Z,12.10
2023-01-25T04:51:10.041Z,13.82
2023-01-25T04:54:07.731Z,17.33
2023-01-25T04:57:06.052Z,18.45
2023-01-25T05:00:04.181Z,18.80
2023-01-25T05:03:02.000Z,22.65
2023-01-25T05:05:59.981Z,21.85
2023-01-25T05:08:57.752Z,25.67
2023-01-25T05:11:55.674Z,28.77
2023-01-25T05:14:53.514Z,45.78
2023-01-25T05:17:51.245Z,74.28
2023-01-25T05:20:49.061Z,84.65
2023-01-25T05:23:46.692Z,115.50
2023-01-25T05:26:59.977Z,141.88
2023-01-25T05:29:58.269Z,137.35
2023-01-25T05:32:56.026Z,153.20
2023-01-25T05:35:54.289Z,163.23
2023-01-25T05:38:53.517Z,158.02
2023-01-25T05:41:51.535Z,151.68
2023-01-25T05:44:49.681Z,145.45
2023-01-25T05:47:47.360Z,132.15
2023-01-25T05:50:45.114Z,114.25
2023-01-25T05:53:42.993Z,121.72
2023-01-25T05:56:40.959Z,130.18
2023-01-25T05:59:39.443Z,135.18
2023-01-25T06:02:37.637Z,131.50
2023-01-25T06:05:35.382Z,90.55
2023-01-25T06:08:33.524Z,120.60
2023-01-25T06:11:31.255Z,90.32
2023-01-25T06:14:29.135Z,112.40
2023-01-25T06:17:27.059Z,119.00
2023-01-25T06:20:24.925Z,120.95
2023-01-25T06:23:22.765Z,115.72
2023-01-25T06:26:20.573Z,126.53
2023-01-25T06:29:19.263Z,114.32
2023-01-25T06:32:17.164Z,145.35
2023-01-25T06:35:15.226Z,164.02
2023-01-25T06:38:13.142Z,164.73
2023-01-25T06:41:13.286Z,167.65
2023-01-25T06:44:13.062Z,160.70
2023-01-25T06:47:10.857Z,159.35
2023-01-25T06:50:09.958Z,142.57
2023-01-25T06:53:07.627Z,131.43
2023-01-25T06:56:11.613Z,113.57
2023-01-25T06:59:09.638Z,115.57
2023-01-25T07:02:07.978Z,109.07
2023-01-25T07:05:06.025Z,93.95
2023-01-25T07:08:03.894Z,86.47
2023-01-25T07:11:05.880Z,83.43
2023-01-25T07:14:06.687Z,92.63
2023-01-25T07:17:04.584Z,108.97
2023-01-25T07:20:02.381Z,112.68
2023-01-25T07:23:02.183Z,115.22
2023-01-25T07:26:01.208Z,98.78
2023-01-25T07:29:00.152Z,103.38
2023-01-25T07:31:58.310Z,101.75
2023-01-25T07:34:56.068Z,98.68
2023-01-25T07:37:53.860Z,99.35
2023-01-25T07:40:53.877Z,93.05
2023-01-25T07:43:51.984Z,90.45
2023-01-25T07:46:54.789Z,91.60
2023-01-25T07:49:52.871Z,86.85
2023-01-25T07:52:50.555Z,91.45
2023-01-25T07:55:48.382Z,85.18
2023-01-25T07:58:46.965Z,90.25
2023-01-25T08:01:44.884Z,97.03
2023-01-25T08:04:43.025Z,98.43
2023-01-25T08:07:40.875Z,105.45
2023-01-25T08:10:39.772Z,106.18
2023-01-25T08:13:39.041Z,110.32
2023-01-25T08:16:39.260Z,111.65
2023-01-25T08:19:37.485Z,113.85
2023-01-25T08:22:35.243Z,112.28
2023-01-25T08:25:33.107Z,109.90
2023-01-25T08:28:31.103Z,114.00
2023-01-25T08:31:31.677Z,99.68
2023-01-25T08:34:31.727Z,98.13
2023-01-25T08:37:30.398Z,91.95
2023-01-25T08:40:28.260Z,89.38
2023-01-25T08:43:26.101Z,86.13
2023-01-25T08:46:28.631Z,86.88
2023-01-25T08:49:28.485Z,88.05
2023-01-25T08:52:26.147Z,87.07
2023-01-25T08:55:25.099Z,87.60
2023-01-25T08:58:23.223Z,86.82
2023-01-25T09:01:22.202Z,84.13
2023-01-25T09:04:20.058Z,88.25
2023-01-25T09:07:18.102Z,89.25
2023-01-25T09:10:15.832Z,84.35
2023-01-25T09:13:17.746Z,85.57
2023-01-25T09:16:20.347Z,88.70
2023-01-25T09:19:18.337Z,82.75
2023-01-25T09:22:15.979Z,92.25
2023-01-25T09:25:13.901Z,95.03
2023-01-25T09:28:12.362Z,101.25
2023-01-25T09:31:21.733Z,102.18
2023-01-25T09:34:20.934Z,121.13
2023-01-25T09:37:19.637Z,123.60
2023-01-25T09:40:24.786Z,128.95
2023-01-25T09:43:49.810Z,128.40
2023-01-25T09:46:56.697Z,126.05
2023-01-25T09:50:25.140Z,128.43
2023-01-25T09:53:40.660Z,126.20
2023-01-25T09:56:40.355Z,136.73
2023-01-25T09:59:41.381Z,136.45
2023-01-25T10:02:50.816Z,134.82
2023-01-25T10:05:51.114Z,128.75
2023-01-25T10:09:12.827Z,123.90
2023-01-25T10:12:21.976Z,129.13
2023-01-25T10:15:23.324Z,124.88
2023-01-25T10:18:56.224Z,120.65
2023-01-25T10:22:01.821Z,123.93
2023-01-25T10:25:05.962Z,116.25
2023-01-25T10:28:25.408Z,114.80
2023-01-25T10:31:34.313Z,113.75
2023-01-25T10:34:54.978Z,116.47
2023-01-25T10:37:54.453Z,112.93
2023-01-25T10:41:01.131Z,112.63
2023-01-25T10:44:14.403Z,114.63
2023-01-25T10:47:27.033Z,111.95
2023-01-25T10:50:46.795Z,108.30
2023-01-25T10:53:44.844Z,118.90
2023-01-25T10:56:44.895Z,114.07
2023-01-25T10:59:47.650Z,111.80
2023-01-25T11:02:47.718Z,115.18
2023-01-25T11:05:55.441Z,109.50
2023-01-25T11:08:53.195Z,111.10
2023-01-25T11:12:14.618Z,117.75
2023-01-25T11:15:27.725Z,108.10
2023-01-25T11:21:28.666Z,98.57
2023-01-25T11:24:29.577Z,109.30
2023-01-25T11:27:29.787Z,111.03
2023-01-25T11:30:27.605Z,108.03
2023-01-25T11:33:27.343Z,111.27
2023-01-25T11:36:39.289Z,113.30
2023-01-25T11:40:03.256Z,110.38
2023-01-25T11:43:31.824Z,105.57
2023-01-25T11:46:48.821Z,107.45
2023-01-25T11:50:18.373Z,110.80
2023-01-25T11:53:34.686Z,104.18
2023-01-25T11:57:01.110Z,109.88
2023-01-25T12:00:11.852Z,106.88
2023-01-25T12:03:37.731Z,104.30
2023-01-25T12:07:04.745Z,99.97
2023-01-25T12:10:21.448Z,101.13
2023-01-25T12:13:42.071Z,106.30
2023-01-25T12:17:15.422Z,106.73
2023-01-25T12:20:41.322Z,99.10
2023-01-25T12:24:05.213Z,105.53
2023-01-25T12:27:21.312Z,100.77
2023-01-25T12:30:40.430Z,102.07
2023-01-25T12:33:48.667Z,99.63
2023-01-25T12:36:49.560Z,98.20
2023-01-25T12:40:03.162Z,103.37
2023-01-25T12:43:03.591Z,101.63
2023-01-25T12:46:07.887Z,100.47
2023-01-25T12:49:16.328Z,96.30
2023-01-25T12:52:40.483Z,93.97
2023-01-25T12:55:38.645Z,92.00
2023-01-25T12:58:49.019Z,80.87
2023-01-25T13:01:55.582Z,85.37
2023-01-25T13:05:11.056Z,80.67
2023-01-25T13:08:31.981Z,77.30
2023-01-25T13:11:46.751Z,82.10
2023-01-25T13:14:44.961Z,73.93
2023-01-25T13:17:42.963Z,82.43
2023-01-25T13:20:54.032Z,80.80
2023-01-25T13:24:13.145Z,76.13
2023-01-25T13:27:29.502Z,76.23
2023-01-25T13:30:33.042Z,72.73
2023-01-25T13:33:36.509Z,73.13
2023-01-25T13:43:23.110Z,64.00
2023-01-25T13:46:25.634Z,65.83
2023-01-25T13:49:29.207Z,65.03
2023-01-25T13:52:28.992Z,66.43
2023-01-25T13:55:30.438Z,65.00
2023-01-25T13:58:33.855Z,62.17
2023-01-25T14:04:32.634Z,55.13
2023-01-25T14:07:34.199Z,59.30
2023-01-25T14:10:33.293Z,61.17
2023-01-25T14:13:31.345Z,97.67
2023-01-25T14:16:31.451Z,99.63
2023-01-25T14:19:31.690Z,93.23
2023-01-25T14:22:33.366Z,82.33
2023-01-25T14:25:31.350Z,87.73
2023-01-25T14:28:31.205Z,89.57
2023-01-25T14:31:36.281Z,93.87
2023-01-25T14:34:34.608Z,90.03
2023-01-25T14:37:32.500Z,84.80
2023-01-25T14:40:32.020Z,83.63
2023-01-25T14:43:31.780Z,82.10
2023-01-25T14:46:35.229Z,77.73
2023-01-25T14:52:32.211Z,64.20
2023-01-25T14:55:30.295Z,64.53
2023-01-25T14:59:01.290Z,66.13
2023-01-25T15:02:25.332Z,58.77
2023-01-25T15:05:28.607Z,58.07
2023-01-25T15:11:38.882Z,52.87
2023-01-25T15:14:50.461Z,49.90
2023-01-25T15:17:51.801Z,46.10
2023-01-25T15:20:50.160Z,43.33
2023-01-25T15:23:50.365Z,41.30
2023-01-25T15:26:51.955Z,44.73
2023-01-25T15:29:51.386Z,41.73
2023-01-25T15:32:50.226Z,37.97
2023-01-25T15:35:48.943Z,36.63
2023-01-25T15:38:47.556Z,37.07
2023-01-25T15:41:48.162Z,38.70
2023-01-25T15:44:46.084Z,37.87
2023-01-25T15:47:44.150Z,34.30
2023-01-25T15:50:43.044Z,40.20
2023-01-25T15:53:41.418Z,38.80
2023-01-25T15:56:42.493Z,39.03
2023-01-25T15:59:45.395Z,41.87
2023-01-25T16:02:44.022Z,49.90
2023-01-25T16:05:42.241Z,49.20
2023-01-25T16:08:40.658Z,51.40
2023-01-25T16:11:38.941Z,49.50
2023-01-25T16:14:36.832Z,49.23
2023-01-25T16:17:35.660Z,46.60
2023-01-25T16:20:34.033Z,45.87
2023-01-25T16:23:32.092Z,43.67
2023-01-25T16:26:30.297Z,44.23
2023-01-25T16:29:30.389Z,45.10
2023-01-25T16:32:28.719Z,45.33
2023-01-25T16:35:27.273Z,45.07
2023-01-25T16:38:25.196Z,47.73
2023-01-25T16:41:24.506Z,45.87
2023-01-25T16:44:22.511Z,44.67
2023-01-25T16:47:20.795Z,41.53
2023-01-25T16:50:21.442Z,38.57
2023-01-25T16:53:19.661Z,38.87
2023-01-25T16:56:23.152Z,39.83
2023-01-25T17:05:41.084Z,37.73
2023-01-25T17:08:39.038Z,40.10
2023-01-25T17:11:39.100Z,39.43
2023-01-25T17:14:37.117Z,42.27
2023-01-25T17:17:36.601Z,40.33
2023-01-25T17:20:34.574Z,38.70
2023-01-25T17:23:34.535Z,40.77
2023-01-25T17:26:33.579Z,40.33
2023-01-25T17:29:32.112Z,42.33
2023-01-25T17:32:30.721Z,40.73
2023-01-25T17:35:28.913Z,42.17
2023-01-25T17:38:27.016Z,42.23
2023-01-25T17:41:26.407Z,38.10
2023-01-25T17:44:27.767Z,38.57
2023-01-25T17:47:25.954Z,38.07
2023-01-25T17:50:24.179Z,34.80
2023-01-25T17:53:22.242Z,36.30
2023-01-25T17:56:20.736Z,36.50
2023-01-25T17:59:19.221Z,36.10
2023-01-25T18:02:17.263Z,41.50
2023-01-25T18:05:16.439Z,39.67
2023-01-25T18:08:14.395Z,36.33
2023-01-25T18:11:16.017Z,35.03
2023-01-25T18:14:17.924Z,34.87
2023-01-25T18:17:15.796Z,32.47
2023-01-25T18:20:13.938Z,29.90
2023-01-25T18:23:11.972Z,34.37
2023-01-25T18:26:19.673Z,35.23
2023-01-25T18:29:40.000Z,33.97
2023-01-25T18:32:37.933Z,47.10
2023-01-25T18:35:36.162Z,40.93
2023-01-25T18:38:33.947Z,45.63
2023-01-25T18:41:32.116Z,40.90
2023-01-25T18:44:30.490Z,45.07
2023-01-25T18:47:28.918Z,45.53
2023-01-25T18:50:27.785Z,44.73
2023-01-25T18:53:28.051Z,44.83
2023-01-25T18:56:27.757Z,38.23
2023-01-25T18:59:25.867Z,33.07
2023-01-25T19:02:24.291Z,27.37
2023-01-25T19:05:22.364Z,26.47
2023-01-25T19:08:21.141Z,23.87
2023-01-25T19:11:20.664Z,24.43
2023-01-25T19:14:18.641Z,23.93
2023-01-25T19:17:16.425Z,22.17
2023-01-25T19:20:14.134Z,21.63
2023-01-25T19:23:12.275Z,22.50
2023-01-25T19:26:13.911Z,20.20
2023-01-25T19:29:13.843Z,20.63
2023-01-25T19:32:11.687Z,21.90
2023-01-25T19:35:09.885Z,24.67
2023-01-25T19:38:07.870Z,23.53
2023-01-25T19:41:07.662Z,22.30
2023-01-25T19:44:07.635Z,23.57
2023-01-25T19:47:06.308Z,22.70
2023-01-25T19:50:04.405Z,22.73
2023-01-25T19:53:03.222Z,24.33
2023-01-25T19:56:03.924Z,22.60
2023-01-25T19:59:04.779Z,25.23
2023-01-25T20:02:02.942Z,24.43
2023-01-25T20:05:00.859Z,25.20
2023-01-25T20:07:58.560Z,23.50
2023-01-25T20:45:19.594Z,24.23
2023-01-25T20:48:17.346Z,25.03
2023-01-25T20:51:17.513Z,24.40
2023-01-25T20:54:16.631Z,21.60
2023-01-25T20:57:14.696Z,21.70
2023-01-25T21:00:14.220Z,23.83
2023-01-25T21:03:12.104Z,25.47
2023-01-25T21:06:10.927Z,23.50
2023-01-25T21:09:08.839Z,24.07
2023-01-25T21:12:06.769Z,28.73
2023-01-25T21:15:05.149Z,28.60
2023-01-25T21:18:03.401Z,25.50
2023-01-25T21:21:04.414Z,26.23
2023-01-25T21:24:03.266Z,28.57
2023-01-25T21:27:01.062Z,27.00
2023-01-25T21:29:59.164Z,29.27
2023-01-25T21:32:57.143Z,27.00
2023-01-25T21:35:56.137Z,24.80
2023-01-25T21:38:55.634Z,24.73
2023-01-25T21:41:53.309Z,21.87
2023-01-25T21:45:06.358Z,22.63
2023-01-25T21:48:04.090Z,23.10
2023-01-25T21:51:17.442Z,24.07
2023-01-25T21:54:16.167Z,24.07
2023-01-25T21:57:13.918Z,24.83
2023-01-25T22:00:12.755Z,26.23
2023-01-25T22:03:10.582Z,25.87
2023-01-25T22:06:08.262Z,26.10
2023-01-25T22:09:06.334Z,25.80
2023-01-25T22:12:04.345Z,28.57
2023-01-25T22:15:03.947Z,29.23
2023-01-25T22:18:05.516Z,30.77
2023-01-25T22:21:05.973Z,29.50
2023-01-25T22:24:06.324Z,24.57
2023-01-25T22:27:29.877Z,25.83
2023-01-25T22:30:27.675Z,22.60
2023-01-25T22:33:25.453Z,23.83
2023-01-25T22:36:24.908Z,22.30
2023-01-25T22:39:22.756Z,17.33
2023-01-25T22:42:20.503Z,20.87
2023-01-25T22:45:18.427Z,20.23
2023-01-25T22:48:16.064Z,20.50
2023-01-25T22:51:17.603Z,18.97
2023-01-25T22:54:15.415Z,17.93
2023-01-25T22:57:13.218Z,20.57
2023-01-25T23:00:11.970Z,20.37
2023-01-25T23:03:10.203Z,20.63
2023-01-25T23:06:13.206Z,21.57
2023-01-25T23:09:11.345Z,25.45
2023-01-25T23:12:09.048Z,28.13
2023-01-25T23:15:07.659Z,26.00
2023-01-25T23:18:25.467Z,28.63
2023-01-25T23:21:31.520Z,21.47
2023-01-25T23:24:29.293Z,21.17
2023-01-25T23:27:27.026Z,21.33
2023-01-25T23:30:24.691Z,20.97
2023-01-25T23:33:22.435Z,19.33
2023-01-25T23:36:25.463Z,20.63
2023-01-25T23:39:24.357Z,20.52
2023-01-25T23:42:22.032Z,19.40
2023-01-25T23:45:19.865Z,21.67
2023-01-25T23:48:17.441Z,20.80
2023-01-25T23:51:16.788Z,20.57
2023-01-25T23:54:14.534Z,20.00
2023-01-25T23:57:12.479Z,21.43
